createdAt,value
2022-12-24T08:20:17.372Z,3.58
2022-12-24T08:25:20.518Z,3.59
2022-12-24T08:30:22.812Z,3.54
2022-12-24T08:35:25.034Z,3.58
2022-12-24T08:40:27.403Z,3.50
2022-12-24T08:45:33.173Z,3.54
2022-12-24T08:50:39.880Z,3.59
2022-12-24T08:55:42.432Z,3.66
2022-12-24T09:00:45.280Z,3.70
2022-12-24T09:05:47.879Z,3.73
2022-12-24T09:10:50.082Z,3.83
2022-12-24T09:15:55.728Z,4.02
2022-12-24T09:21:06.603Z,4.16
2022-12-24T09:26:12.339Z,4.20
2022-12-24T09:31:15.182Z,4.17
2022-12-24T09:36:18.558Z,4.10
2022-12-24T09:41:55.330Z,4.12
2022-12-24T09:47:05.387Z,4.17
2022-12-24T09:52:20.658Z,3.98
2022-12-24T09:57:35.877Z,4.10
2022-12-24T10:02:38.240Z,4.20
2022-12-24T10:07:50.136Z,4.22
2022-12-24T10:13:32.690Z,4.23
2022-12-24T10:18:58.985Z,4.24
2022-12-24T10:24:22.466Z,4.27
2022-12-24T10:29:28.935Z,4.30
2022-12-24T10:34:36.284Z,4.40
2022-12-24T10:39:38.553Z,4.48
2022-12-24T10:44:40.953Z,4.43
2022-12-24T10:49:50.347Z,4.38
2022-12-24T10:55:08.083Z,4.21
2022-12-24T11:00:28.579Z,4.18
2022-12-24T11:05:37.440Z,4.20
2022-12-24T11:10:56.169Z,4.43
2022-12-24T11:16:06.464Z,4.63
2022-12-24T11:21:08.853Z,4.58
2022-12-24T11:26:11.132Z,4.53
2022-12-24T11:31:21.099Z,4.82
2022-12-24T11:36:26.529Z,4.59
2022-12-24T11:41:37.295Z,4.63
2022-12-24T11:46:43.386Z,4.58
2022-12-24T11:52:12.107Z,4.58
2022-12-24T11:57:18.766Z,4.54
2022-12-24T12:02:38.159Z,4.42
2022-12-24T12:07:42.707Z,4.43
2022-12-24T12:12:50.156Z,4.36
2022-12-24T12:17:55.320Z,4.42
2022-12-24T12:23:02.648Z,4.39
2022-12-24T12:28:14.353Z,4.35
2022-12-24T12:33:26.756Z,4.30
2022-12-24T12:38:29.343Z,4.28
2022-12-24T12:43:34.483Z,4.33
2022-12-24T12:49:05.959Z,4.34
2022-12-24T12:54:21.175Z,4.41
2022-12-24T12:59:32.349Z,4.50
2022-12-24T13:04:34.495Z,4.50
2022-12-24T13:10:02.474Z,4.54
2022-12-24T13:15:24.910Z,4.57
2022-12-24T13:20:31.440Z,4.58
2022-12-24T13:25:40.095Z,4.49
2022-12-24T13:30:42.660Z,4.51
2022-12-24T13:35:59.788Z,4.64
2022-12-24T13:41:41.464Z,4.58
2022-12-24T13:47:25.364Z,4.68
2022-12-24T13:52:35.401Z,4.71
2022-12-24T13:57:58.040Z,4.65
2022-12-24T14:03:15.447Z,4.61
2022-12-24T14:08:40.376Z,4.63
2022-12-24T14:13:42.535Z,4.53
2022-12-24T14:18:58.087Z,4.57
2022-12-24T14:24:07.760Z,4.53
2022-12-24T14:29:31.195Z,4.52
2022-12-24T14:34:33.512Z,4.51
2022-12-24T14:39:39.033Z,4.52
2022-12-24T14:44:59.696Z,4.47
2022-12-24T14:50:21.758Z,4.48
2022-12-24T14:55:50.885Z,4.48
2022-12-24T15:00:59.888Z,4.47
2022-12-24T15:06:05.366Z,4.51
2022-12-24T15:11:10.233Z,4.51
2022-12-24T15:16:22.260Z,4.52
2022-12-24T15:21:33.239Z,4.53
2022-12-24T15:26:36.628Z,4.49
2022-12-24T15:31:39.035Z,4.46
2022-12-24T15:36:41.251Z,4.34
2022-12-24T15:42:03.967Z,4.35
2022-12-24T15:47:18.691Z,4.31
2022-12-24T15:52:24.657Z,4.31
2022-12-24T15:57:31.940Z,4.26
2022-12-24T16:02:42.262Z,4.28
2022-12-24T16:08:08.599Z,4.30
2022-12-24T16:13:31.327Z,4.28
2022-12-24T16:18:49.027Z,4.30
2022-12-24T16:23:54.629Z,4.27
2022-12-24T16:28:56.874Z,4.28
2022-12-24T16:34:01.067Z,4.25
2022-12-24T16:39:21.563Z,4.16
2022-12-24T16:44:23.760Z,4.07
2022-12-24T16:49:26.971Z,4.09
2022-12-24T16:54:30.117Z,4.06
2022-12-24T16:59:32.715Z,4.13
2022-12-24T17:04:35.142Z,4.14
2022-12-24T17:09:37.404Z,4.17
2022-12-24T17:14:40.745Z,4.09
2022-12-24T17:19:43.109Z,4.14
2022-12-24T17:24:45.691Z,4.05
2022-12-24T17:29:47.984Z,4.05
2022-12-24T17:34:50.242Z,4.05
2022-12-24T17:39:52.472Z,3.91
2022-12-24T17:44:54.731Z,3.73
2022-12-24T17:49:56.993Z,3.52
2022-12-24T17:54:59.358Z,3.27
2022-12-24T18:00:01.760Z,3.08
2022-12-24T18:05:23.903Z,2.87
2022-12-24T18:10:26.173Z,2.79
2022-12-24T18:15:28.435Z,2.68
2022-12-24T18:20:33.778Z,2.54
2022-12-24T18:25:36.023Z,2.43
2022-12-24T18:30:38.253Z,2.30
2022-12-24T18:35:40.523Z,2.12
2022-12-24T18:40:42.772Z,1.96
2022-12-24T18:45:45.854Z,1.81
2022-12-24T18:50:56.187Z,1.67
2022-12-24T18:56:17.816Z,1.61
2022-12-24T19:01:25.378Z,1.49
2022-12-24T19:06:28.107Z,1.38
2022-12-24T19:11:32.587Z,1.28
2022-12-24T19:16:36.930Z,1.18
2022-12-24T19:21:39.298Z,1.13
2022-12-24T19:26:41.595Z,1.07
2022-12-24T19:31:47.194Z,1.02
2022-12-24T19:36:49.653Z,1.11
2022-12-24T19:41:52.500Z,1.22
2022-12-24T19:46:54.801Z,1.29
2022-12-24T19:51:57.280Z,1.32
2022-12-24T19:56:59.518Z,1.42
2022-12-24T20:02:02.341Z,1.35
2022-12-24T20:07:04.669Z,1.25
2022-12-24T20:12:07.325Z,1.26
2022-12-24T20:17:10.018Z,1.28
2022-12-24T20:22:12.753Z,1.35
2022-12-24T20:27:15.058Z,1.46
2022-12-24T20:32:17.426Z,1.57
2022-12-24T20:37:19.748Z,1.74
2022-12-24T20:42:22.029Z,1.76
2022-12-24T20:47:24.290Z,1.86
2022-12-24T20:52:26.620Z,1.92
2022-12-24T20:57:34.398Z,1.94
2022-12-24T21:02:38.730Z,2.12
2022-12-24T21:07:42.991Z,2.14
2022-12-24T21:12:56.762Z,2.16
2022-12-24T21:17:59.802Z,2.24
2022-12-24T21:23:02.318Z,2.72
2022-12-24T21:28:04.774Z,2.88
2022-12-24T21:33:06.997Z,3.19
2022-12-24T21:38:09.249Z,3.49
2022-12-24T21:43:11.447Z,3.73
2022-12-24T21:48:32.200Z,3.88
2022-12-24T21:53:52.988Z,4.08
2022-12-24T21:58:55.202Z,4.29
2022-12-24T22:03:57.438Z,4.44
2022-12-24T22:09:20.437Z,4.61
2022-12-24T22:14:22.678Z,4.69
2022-12-24T22:19:25.201Z,4.84
2022-12-24T22:24:27.461Z,4.91
2022-12-24T22:29:29.791Z,5.03
2022-12-24T22:34:32.840Z,5.12
2022-12-24T22:39:35.112Z,5.22
2022-12-24T22:44:37.369Z,5.21
2022-12-24T22:49:39.585Z,5.25
2022-12-24T22:54:41.945Z,5.31
2022-12-24T22:59:44.500Z,5.43
2022-12-24T23:04:46.919Z,5.51
2022-12-24T23:09:49.237Z,5.60
2022-12-24T23:14:57.338Z,5.66
2022-12-24T23:20:02.081Z,5.71
2022-12-24T23:25:04.602Z,5.74
2022-12-24T23:30:07.626Z,5.76
2022-12-24T23:35:09.896Z,5.78
2022-12-24T23:40:12.327Z,5.76
2022-12-24T23:45:14.762Z,5.70
2022-12-24T23:50:17.146Z,5.63
2022-12-24T23:55:19.391Z,5.53
